sensor_id;sensor_type;location;lat;lon;timestamp;P1;durP1;ratioP1;P2;durP2;ratioP2
12968;SDS011;6549;53.128;8.182;2023-09-08T00:01:53;6.10;;;5.00;;
12968;SDS011;6549;53.128;8.182;2023-09-08T00:04:53;7.35;;;5.30;;
12968;SDS011;6549;53.128;8.182;2023-09-08T00:07:54;6.70;;;4.90;;
12968;SDS011;6549;53.128;8.182;2023-09-08T00:10:54;6.15;;;4.63;;
12968;SDS011;6549;53.128;8.182;2023-09-08T00:13:54;5.40;;;4.60;;
12968;SDS011;6549;53.128;8.182;2023-09-08T00:16:55;6.47;;;5.30;;
12968;SDS011;6549;53.128;8.182;2023-09-08T00:19:56;7.03;;;4.85;;
12968;SDS011;6549;53.128;8.182;2023-09-08T00:22:58;5.78;;;4.90;;
12968;SDS011;6549;53.128;8.182;2023-09-08T00:25:58;5.93;;;4.97;;
12968;SDS011;6549;53.128;8.182;2023-09-08T00:28:58;6.68;;;4.88;;
12968;SDS011;6549;53.128;8.182;2023-09-08T00:31:59;7.68;;;5.60;;
12968;SDS011;6549;53.128;8.182;2023-09-08T00:34:59;6.78;;;4.85;;
12968;SDS011;6549;53.128;8.182;2023-09-08T00:37:59;8.10;;;5.15;;
12968;SDS011;6549;53.128;8.182;2023-09-08T00:41:00;6.70;;;4.47;;
12968;SDS011;6549;53.128;8.182;2023-09-08T00:44:00;5.72;;;4.68;;
12968;SDS011;6549;53.128;8.182;2023-09-08T00:47:01;6.93;;;5.20;;
12968;SDS011;6549;53.128;8.182;2023-09-08T00:50:02;6.10;;;4.65;;
12968;SDS011;6549;53.128;8.182;2023-09-08T00:53:05;6.60;;;4.85;;
12968;SDS011;6549;53.128;8.182;2023-09-08T00:56:06;6.35;;;4.57;;
12968;SDS011;6549;53.128;8.182;2023-09-08T00:59:08;7.07;;;4.93;;
12968;SDS011;6549;53.128;8.182;2023-09-08T01:02:09;7.28;;;5.63;;
12968;SDS011;6549;53.128;8.182;2023-09-08T01:05:09;5.95;;;5.05;;
12968;SDS011;6549;53.128;8.182;2023-09-08T01:08:09;7.95;;;5.35;;
12968;SDS011;6549;53.128;8.182;2023-09-08T01:11:10;6.25;;;5.13;;
12968;SDS011;6549;53.128;8.182;2023-09-08T01:14:11;6.50;;;5.10;;
12968;SDS011;6549;53.128;8.182;2023-09-08T01:17:12;6.03;;;5.10;;
12968;SDS011;6549;53.128;8.182;2023-09-08T01:20:15;6.35;;;5.15;;
12968;SDS011;6549;53.128;8.182;2023-09-08T01:23:22;5.93;;;5.32;;
12968;SDS011;6549;53.128;8.182;2023-09-08T01:26:30;7.60;;;5.38;;
12968;SDS011;6549;53.128;8.182;2023-09-08T01:29:35;6.30;;;5.28;;
12968;SDS011;6549;53.128;8.182;2023-09-08T01:32:39;5.93;;;5.00;;
12968;SDS011;6549;53.128;8.182;2023-09-08T01:35:40;6.73;;;5.43;;
12968;SDS011;6549;53.128;8.182;2023-09-08T01:38:41;7.45;;;5.65;;
12968;SDS011;6549;53.128;8.182;2023-09-08T01:41:41;7.47;;;5.72;;
12968;SDS011;6549;53.128;8.182;2023-09-08T01:44:42;7.13;;;5.75;;
12968;SDS011;6549;53.128;8.182;2023-09-08T01:47:42;7.18;;;5.13;;
12968;SDS011;6549;53.128;8.182;2023-09-08T01:50:42;7.25;;;5.10;;
12968;SDS011;6549;53.128;8.182;2023-09-08T01:53:42;5.75;;;4.90;;
12968;SDS011;6549;53.128;8.182;2023-09-08T01:56:43;7.82;;;5.15;;
12968;SDS011;6549;53.128;8.182;2023-09-08T01:59:43;6.43;;;5.10;;
12968;SDS011;6549;53.128;8.182;2023-09-08T02:02:44;7.72;;;5.28;;
12968;SDS011;6549;53.128;8.182;2023-09-08T02:05:45;7.80;;;5.63;;
12968;SDS011;6549;53.128;8.182;2023-09-08T02:08:45;7.88;;;6.13;;
12968;SDS011;6549;53.128;8.182;2023-09-08T02:11:45;6.60;;;5.13;;
12968;SDS011;6549;53.128;8.182;2023-09-08T02:14:46;7.22;;;5.47;;
12968;SDS011;6549;53.128;8.182;2023-09-08T02:17:46;6.60;;;5.53;;
12968;SDS011;6549;53.128;8.182;2023-09-08T02:20:53;7.18;;;5.70;;
12968;SDS011;6549;53.128;8.182;2023-09-08T02:23:53;6.57;;;5.88;;
12968;SDS011;6549;53.128;8.182;2023-09-08T02:26:54;6.97;;;5.55;;
12968;SDS011;6549;53.128;8.182;2023-09-08T02:29:54;8.18;;;5.95;;
12968;SDS011;6549;53.128;8.182;2023-09-08T02:32:54;7.43;;;5.90;;
12968;SDS011;6549;53.128;8.182;2023-09-08T02:35:55;7.72;;;6.03;;
12968;SDS011;6549;53.128;8.182;2023-09-08T02:38:55;7.32;;;6.13;;
12968;SDS011;6549;53.128;8.182;2023-09-08T02:41:56;7.07;;;5.68;;
12968;SDS011;6549;53.128;8.182;2023-09-08T02:44:56;7.10;;;5.70;;
12968;SDS011;6549;53.128;8.182;2023-09-08T02:47:57;7.57;;;5.63;;
12968;SDS011;6549;53.128;8.182;2023-09-08T02:50:57;7.15;;;5.70;;
12968;SDS011;6549;53.128;8.182;2023-09-08T02:53:57;8.73;;;5.75;;
12968;SDS011;6549;53.128;8.182;2023-09-08T02:56:58;6.72;;;5.47;;
12968;SDS011;6549;53.128;8.182;2023-09-08T02:59:58;6.43;;;5.55;;
12968;SDS011;6549;53.128;8.182;2023-09-08T03:02:58;8.18;;;5.85;;
12968;SDS011;6549;53.128;8.182;2023-09-08T03:05:59;7.82;;;5.72;;
12968;SDS011;6549;53.128;8.182;2023-09-08T03:09:03;7.88;;;6.05;;
12968;SDS011;6549;53.128;8.182;2023-09-08T03:12:03;10.00;;;6.60;;
12968;SDS011;6549;53.128;8.182;2023-09-08T03:15:04;6.95;;;6.00;;
12968;SDS011;6549;53.128;8.182;2023-09-08T03:18:05;6.70;;;5.47;;
12968;SDS011;6549;53.128;8.182;2023-09-08T03:21:05;6.70;;;5.72;;
12968;SDS011;6549;53.128;8.182;2023-09-08T03:24:09;6.80;;;5.78;;
12968;SDS011;6549;53.128;8.182;2023-09-08T03:27:09;7.00;;;5.78;;
12968;SDS011;6549;53.128;8.182;2023-09-08T03:30:10;7.43;;;5.80;;
12968;SDS011;6549;53.128;8.182;2023-09-08T03:33:10;7.18;;;6.10;;
12968;SDS011;6549;53.128;8.182;2023-09-08T03:36:11;7.47;;;6.53;;
12968;SDS011;6549;53.128;8.182;2023-09-08T03:39:11;7.18;;;5.88;;
12968;SDS011;6549;53.128;8.182;2023-09-08T03:42:11;6.40;;;5.65;;
12968;SDS011;6549;53.128;8.182;2023-09-08T03:45:12;7.05;;;6.00;;
12968;SDS011;6549;53.128;8.182;2023-09-08T03:48:12;7.75;;;6.05;;
12968;SDS011;6549;53.128;8.182;2023-09-08T03:51:12;7.15;;;6.25;;
12968;SDS011;6549;53.128;8.182;2023-09-08T03:54:13;7.15;;;6.20;;
12968;SDS011;6549;53.128;8.182;2023-09-08T03:57:13;7.97;;;6.50;;
12968;SDS011;6549;53.128;8.182;2023-09-08T04:00:13;8.45;;;6.43;;
12968;SDS011;6549;53.128;8.182;2023-09-08T04:03:20;7.82;;;6.43;;
12968;SDS011;6549;53.128;8.182;2023-09-08T04:06:20;7.43;;;6.30;;
12968;SDS011;6549;53.128;8.182;2023-09-08T04:09:21;6.97;;;5.82;;
12968;SDS011;6549;53.128;8.182;2023-09-08T04:12:22;7.60;;;6.30;;
12968;SDS011;6549;53.128;8.182;2023-09-08T04:15:22;8.48;;;6.28;;
12968;SDS011;6549;53.128;8.182;2023-09-08T04:18:22;8.32;;;6.45;;
12968;SDS011;6549;53.128;8.182;2023-09-08T04:21:23;7.60;;;6.43;;
12968;SDS011;6549;53.128;8.182;2023-09-08T04:24:23;10.02;;;7.13;;
12968;SDS011;6549;53.128;8.182;2023-09-08T04:27:23;8.00;;;6.50;;
12968;SDS011;6549;53.128;8.182;2023-09-08T04:30:24;7.70;;;6.40;;
12968;SDS011;6549;53.128;8.182;2023-09-08T04:33:24;7.15;;;6.18;;
12968;SDS011;6549;53.128;8.182;2023-09-08T04:36:24;7.47;;;6.10;;
12968;SDS011;6549;53.128;8.182;2023-09-08T04:39:25;7.60;;;6.30;;
12968;SDS011;6549;53.128;8.182;2023-09-08T04:42:25;7.05;;;6.13;;
12968;SDS011;6549;53.128;8.182;2023-09-08T04:45:25;9.60;;;6.65;;
12968;SDS011;6549;53.128;8.182;2023-09-08T04:48:26;7.75;;;6.18;;
12968;SDS011;6549;53.128;8.182;2023-09-08T04:51:26;8.30;;;6.40;;
12968;SDS011;6549;53.128;8.182;2023-09-08T04:54:26;7.60;;;6.53;;
12968;SDS011;6549;53.128;8.182;2023-09-08T04:57:27;8.35;;;6.78;;
12968;SDS011;6549;53.128;8.182;2023-09-08T05:00:27;8.52;;;6.10;;
12968;SDS011;6549;53.128;8.182;2023-09-08T05:03:27;9.20;;;6.60;;
12968;SDS011;6549;53.128;8.182;2023-09-08T05:06:28;7.93;;;5.95;;
12968;SDS011;6549;53.128;8.182;2023-09-08T05:09:28;8.05;;;6.93;;
12968;SDS011;6549;53.128;8.182;2023-09-08T05:12:28;9.10;;;7.10;;
12968;SDS011;6549;53.128;8.182;2023-09-08T05:15:29;8.13;;;6.32;;
12968;SDS011;6549;53.128;8.182;2023-09-08T05:18:30;7.37;;;6.23;;
12968;SDS011;6549;53.128;8.182;2023-09-08T05:21:31;7.88;;;6.60;;
12968;SDS011;6549;53.128;8.182;2023-09-08T05:24:32;7.90;;;6.60;;
12968;SDS011;6549;53.128;8.182;2023-09-08T05:27:32;7.93;;;6.05;;
12968;SDS011;6549;53.128;8.182;2023-09-08T05:30:33;9.48;;;7.43;;
12968;SDS011;6549;53.128;8.182;2023-09-08T05:33:35;8.98;;;7.32;;
12968;SDS011;6549;53.128;8.182;2023-09-08T05:36:35;7.47;;;6.72;;
12968;SDS011;6549;53.128;8.182;2023-09-08T05:39:39;7.97;;;6.47;;
12968;SDS011;6549;53.128;8.182;2023-09-08T05:42:41;8.10;;;7.15;;
12968;SDS011;6549;53.128;8.182;2023-09-08T05:45:41;9.18;;;7.35;;
12968;SDS011;6549;53.128;8.182;2023-09-08T05:48:41;8.63;;;6.70;;
12968;SDS011;6549;53.128;8.182;2023-09-08T05:51:42;9.05;;;6.85;;
12968;SDS011;6549;53.128;8.182;2023-09-08T05:54:42;8.55;;;7.05;;
12968;SDS011;6549;53.128;8.182;2023-09-08T05:57:42;10.52;;;7.65;;
12968;SDS011;6549;53.128;8.182;2023-09-08T06:00:43;9.73;;;6.60;;
12968;SDS011;6549;53.128;8.182;2023-09-08T06:03:43;8.43;;;6.63;;
12968;SDS011;6549;53.128;8.182;2023-09-08T06:06:43;9.07;;;6.18;;
12968;SDS011;6549;53.128;8.182;2023-09-08T06:09:44;8.35;;;5.95;;
12968;SDS011;6549;53.128;8.182;2023-09-08T06:12:44;7.83;;;6.33;;
12968;SDS011;6549;53.128;8.182;2023-09-08T06:15:44;7.03;;;5.70;;
12968;SDS011;6549;53.128;8.182;2023-09-08T06:18:45;7.65;;;5.75;;
12968;SDS011;6549;53.128;8.182;2023-09-08T06:21:45;9.02;;;6.95;;
12968;SDS011;6549;53.128;8.182;2023-09-08T06:24:46;9.77;;;7.10;;
12968;SDS011;6549;53.128;8.182;2023-09-08T06:27:46;8.60;;;6.95;;
12968;SDS011;6549;53.128;8.182;2023-09-08T06:30:47;8.18;;;6.97;;
12968;SDS011;6549;53.128;8.182;2023-09-08T06:33:47;8.40;;;6.70;;
12968;SDS011;6549;53.128;8.182;2023-09-08T06:36:49;11.15;;;7.38;;
12968;SDS011;6549;53.128;8.182;2023-09-08T06:39:50;9.57;;;7.00;;
12968;SDS011;6549;53.128;8.182;2023-09-08T06:42:50;10.00;;;7.55;;
12968;SDS011;6549;53.128;8.182;2023-09-08T06:45:50;9.75;;;7.28;;
12968;SDS011;6549;53.128;8.182;2023-09-08T06:48:51;9.55;;;6.97;;
12968;SDS011;6549;53.128;8.182;2023-09-08T06:51:51;8.27;;;6.53;;
12968;SDS011;6549;53.128;8.182;2023-09-08T06:54:51;9.23;;;7.13;;
12968;SDS011;6549;53.128;8.182;2023-09-08T06:57:52;10.10;;;7.07;;
12968;SDS011;6549;53.128;8.182;2023-09-08T07:00:52;10.18;;;7.25;;
12968;SDS011;6549;53.128;8.182;2023-09-08T07:03:54;8.88;;;6.60;;
12968;SDS011;6549;53.128;8.182;2023-09-08T07:06:54;9.93;;;7.47;;
12968;SDS011;6549;53.128;8.182;2023-09-08T07:09:54;8.05;;;6.47;;
12968;SDS011;6549;53.128;8.182;2023-09-08T07:12:55;10.83;;;7.03;;
12968;SDS011;6549;53.128;8.182;2023-09-08T07:15:55;8.83;;;6.43;;
12968;SDS011;6549;53.128;8.182;2023-09-08T07:18:55;9.80;;;6.83;;
12968;SDS011;6549;53.128;8.182;2023-09-08T07:21:56;10.60;;;7.18;;
12968;SDS011;6549;53.128;8.182;2023-09-08T07:24:56;7.70;;;6.23;;
12968;SDS011;6549;53.128;8.182;2023-09-08T07:27:56;8.70;;;6.88;;
12968;SDS011;6549;53.128;8.182;2023-09-08T07:31:00;8.20;;;6.63;;
12968;SDS011;6549;53.128;8.182;2023-09-08T07:34:02;8.55;;;6.05;;
12968;SDS011;6549;53.128;8.182;2023-09-08T07:37:03;6.90;;;5.53;;
12968;SDS011;6549;53.128;8.182;2023-09-08T07:40:03;9.38;;;6.10;;
12968;SDS011;6549;53.128;8.182;2023-09-08T07:43:04;7.93;;;6.60;;
12968;SDS011;6549;53.128;8.182;2023-09-08T07:46:04;9.10;;;6.28;;
12968;SDS011;6549;53.128;8.182;2023-09-08T07:49:05;6.67;;;5.70;;
12968;SDS011;6549;53.128;8.182;2023-09-08T07:52:05;7.97;;;6.38;;
12968;SDS011;6549;53.128;8.182;2023-09-08T07:55:07;11.32;;;6.78;;
12968;SDS011;6549;53.128;8.182;2023-09-08T07:58:07;7.55;;;6.63;;
12968;SDS011;6549;53.128;8.182;2023-09-08T08:01:08;8.52;;;6.20;;
12968;SDS011;6549;53.128;8.182;2023-09-08T08:04:08;6.93;;;5.85;;
12968;SDS011;6549;53.128;8.182;2023-09-08T08:07:09;7.25;;;6.07;;
12968;SDS011;6549;53.128;8.182;2023-09-08T08:10:09;9.00;;;6.30;;
12968;SDS011;6549;53.128;8.182;2023-09-08T08:13:10;7.75;;;6.07;;
12968;SDS011;6549;53.128;8.182;2023-09-08T08:16:10;8.48;;;5.30;;
12968;SDS011;6549;53.128;8.182;2023-09-08T08:19:11;8.27;;;5.60;;
12968;SDS011;6549;53.128;8.182;2023-09-08T08:22:11;8.15;;;6.00;;
12968;SDS011;6549;53.128;8.182;2023-09-08T08:25:11;7.63;;;5.47;;
12968;SDS011;6549;53.128;8.182;2023-09-08T08:28:15;10.32;;;6.30;;
12968;SDS011;6549;53.128;8.182;2023-09-08T08:31:16;9.77;;;6.30;;
12968;SDS011;6549;53.128;8.182;2023-09-08T08:34:16;8.20;;;5.67;;
12968;SDS011;6549;53.128;8.182;2023-09-08T08:37:16;7.83;;;6.40;;
12968;SDS011;6549;53.128;8.182;2023-09-08T08:40:16;7.28;;;5.88;;
12968;SDS011;6549;53.128;8.182;2023-09-08T08:43:17;7.28;;;5.50;;
12968;SDS011;6549;53.128;8.182;2023-09-08T08:46:17;7.43;;;5.30;;
12968;SDS011;6549;53.128;8.182;2023-09-08T08:49:18;5.97;;;4.75;;
12968;SDS011;6549;53.128;8.182;2023-09-08T08:52:21;6.97;;;5.55;;
12968;SDS011;6549;53.128;8.182;2023-09-08T08:55:21;7.30;;;5.72;;
12968;SDS011;6549;53.128;8.182;2023-09-08T08:58:23;7.10;;;6.13;;
12968;SDS011;6549;53.128;8.182;2023-09-08T09:01:26;7.50;;;5.57;;
12968;SDS011;6549;53.128;8.182;2023-09-08T09:04:28;6.00;;;4.45;;
12968;SDS011;6549;53.128;8.182;2023-09-08T09:07:30;8.75;;;5.88;;
12968;SDS011;6549;53.128;8.182;2023-09-08T09:10:31;7.28;;;4.93;;
12968;SDS011;6549;53.128;8.182;2023-09-08T09:13:31;8.85;;;5.88;;
12968;SDS011;6549;53.128;8.182;2023-09-08T09:16:38;7.88;;;5.85;;
12968;SDS011;6549;53.128;8.182;2023-09-08T09:19:40;7.35;;;5.32;;
12968;SDS011;6549;53.128;8.182;2023-09-08T09:22:41;7.68;;;5.00;;
12968;SDS011;6549;53.128;8.182;2023-09-08T09:25:42;5.95;;;4.82;;
12968;SDS011;6549;53.128;8.182;2023-09-08T09:28:46;7.43;;;6.13;;
12968;SDS011;6549;53.128;8.182;2023-09-08T09:31:55;9.07;;;5.57;;
12968;SDS011;6549;53.128;8.182;2023-09-08T09:34:57;6.30;;;4.82;;
12968;SDS011;6549;53.128;8.182;2023-09-08T09:38:00;9.52;;;5.20;;
12968;SDS011;6549;53.128;8.182;2023-09-08T09:41:02;8.35;;;5.22;;
12968;SDS011;6549;53.128;8.182;2023-09-08T09:44:02;8.05;;;5.47;;
12968;SDS011;6549;53.128;8.182;2023-09-08T09:47:04;7.53;;;5.20;;
12968;SDS011;6549;53.128;8.182;2023-09-08T09:50:07;6.22;;;5.18;;
12968;SDS011;6549;53.128;8.182;2023-09-08T09:53:14;8.10;;;5.70;;
12968;SDS011;6549;53.128;8.182;2023-09-08T09:56:19;6.43;;;4.93;;
12968;SDS011;6549;53.128;8.182;2023-09-08T09:59:21;8.15;;;5.35;;
12968;SDS011;6549;53.128;8.182;2023-09-08T10:02:22;9.18;;;5.40;;
12968;SDS011;6549;53.128;8.182;2023-09-08T10:05:23;5.25;;;4.75;;
12968;SDS011;6549;53.128;8.182;2023-09-08T10:11:25;12.18;;;5.13;;
12968;SDS011;6549;53.128;8.182;2023-09-08T10:14:28;7.57;;;5.00;;
12968;SDS011;6549;53.128;8.182;2023-09-08T10:17:31;10.60;;;5.72;;
12968;SDS011;6549;53.128;8.182;2023-09-08T10:20:34;9.90;;;5.40;;
12968;SDS011;6549;53.128;8.182;2023-09-08T10:23:38;6.22;;;4.95;;
12968;SDS011;6549;53.128;8.182;2023-09-08T10:26:43;7.90;;;5.18;;
12968;SDS011;6549;53.128;8.182;2023-09-08T10:29:44;9.57;;;5.43;;
12968;SDS011;6549;53.128;8.182;2023-09-08T10:32:45;7.43;;;5.60;;
12968;SDS011;6549;53.128;8.182;2023-09-08T10:35:46;6.10;;;4.97;;
12968;SDS011;6549;53.128;8.182;2023-09-08T10:38:46;5.80;;;4.83;;
12968;SDS011;6549;53.128;8.182;2023-09-08T10:41:49;6.63;;;4.40;;
12968;SDS011;6549;53.128;8.182;2023-09-08T10:50:50;5.40;;;4.63;;
12968;SDS011;6549;53.128;8.182;2023-09-08T10:53:51;5.90;;;5.17;;
12968;SDS011;6549;53.128;8.182;2023-09-08T10:56:54;5.87;;;4.50;;
12968;SDS011;6549;53.128;8.182;2023-09-08T10:59:56;7.07;;;5.00;;
12968;SDS011;6549;53.128;8.182;2023-09-08T11:03:12;6.68;;;4.65;;
12968;SDS011;6549;53.128;8.182;2023-09-08T11:06:15;10.30;;;5.28;;
12968;SDS011;6549;53.128;8.182;2023-09-08T11:09:16;6.93;;;4.60;;
12968;SDS011;6549;53.128;8.182;2023-09-08T11:12:17;6.03;;;4.23;;
12968;SDS011;6549;53.128;8.182;2023-09-08T11:15:17;6.37;;;4.50;;
12968;SDS011;6549;53.128;8.182;2023-09-08T11:18:29;5.55;;;4.40;;
12968;SDS011;6549;53.128;8.182;2023-09-08T11:21:30;11.10;;;5.20;;
12968;SDS011;6549;53.128;8.182;2023-09-08T11:24:34;5.63;;;4.38;;
12968;SDS011;6549;53.128;8.182;2023-09-08T11:27:35;6.30;;;4.43;;
12968;SDS011;6549;53.128;8.182;2023-09-08T11:33:37;6.17;;;4.37;;
12968;SDS011;6549;53.128;8.182;2023-09-08T11:36:39;5.70;;;4.50;;
12968;SDS011;6549;53.128;8.182;2023-09-08T11:39:40;7.00;;;4.60;;
12968;SDS011;6549;53.128;8.182;2023-09-08T11:42:41;6.03;;;4.53;;
12968;SDS011;6549;53.128;8.182;2023-09-08T11:45:46;6.25;;;4.55;;
12968;SDS011;6549;53.128;8.182;2023-09-08T11:48:46;7.57;;;4.40;;
12968;SDS011;6549;53.128;8.182;2023-09-08T11:51:47;5.80;;;4.43;;
12968;SDS011;6549;53.128;8.182;2023-09-08T11:54:47;5.83;;;4.30;;
12968;SDS011;6549;53.128;8.182;2023-09-08T11:57:48;6.33;;;4.70;;
12968;SDS011;6549;53.128;8.182;2023-09-08T12:00:50;5.57;;;4.28;;
12968;SDS011;6549;53.128;8.182;2023-09-08T12:03:51;5.00;;;4.40;;
12968;SDS011;6549;53.128;8.182;2023-09-08T12:06:53;5.35;;;4.40;;
12968;SDS011;6549;53.128;8.182;2023-09-08T12:09:55;5.15;;;4.15;;
12968;SDS011;6549;53.128;8.182;2023-09-08T12:12:56;4.40;;;3.67;;
12968;SDS011;6549;53.128;8.182;2023-09-08T12:16:00;6.68;;;3.83;;
12968;SDS011;6549;53.128;8.182;2023-09-08T12:19:00;9.50;;;4.33;;
12968;SDS011;6549;53.128;8.182;2023-09-08T12:22:01;9.93;;;4.20;;
12968;SDS011;6549;53.128;8.182;2023-09-08T12:25:03;6.10;;;4.20;;
12968;SDS011;6549;53.128;8.182;2023-09-08T12:28:08;7.90;;;4.20;;
12968;SDS011;6549;53.128;8.182;2023-09-08T12:31:09;4.83;;;3.97;;
12968;SDS011;6549;53.128;8.182;2023-09-08T12:34:09;5.00;;;3.92;;
12968;SDS011;6549;53.128;8.182;2023-09-08T12:37:10;5.40;;;4.40;;
12968;SDS011;6549;53.128;8.182;2023-09-08T12:40:11;4.72;;;3.90;;
12968;SDS011;6549;53.128;8.182;2023-09-08T12:43:12;7.23;;;3.83;;
12968;SDS011;6549;53.128;8.182;2023-09-08T12:46:12;6.63;;;3.80;;
12968;SDS011;6549;53.128;8.182;2023-09-08T12:49:12;5.57;;;3.90;;
12968;SDS011;6549;53.128;8.182;2023-09-08T12:52:13;6.87;;;3.63;;
12968;SDS011;6549;53.128;8.182;2023-09-08T12:55:13;5.20;;;3.80;;
12968;SDS011;6549;53.128;8.182;2023-09-08T12:58:14;4.80;;;4.00;;
12968;SDS011;6549;53.128;8.182;2023-09-08T13:01:14;4.33;;;3.50;;
12968;SDS011;6549;53.128;8.182;2023-09-08T13:04:15;6.03;;;3.60;;
12968;SDS011;6549;53.128;8.182;2023-09-08T13:07:18;4.83;;;3.73;;
12968;SDS011;6549;53.128;8.182;2023-09-08T13:10:18;4.45;;;3.30;;
12968;SDS011;6549;53.128;8.182;2023-09-08T13:13:20;5.53;;;3.92;;
12968;SDS011;6549;53.128;8.182;2023-09-08T13:16:20;4.60;;;3.80;;
12968;SDS011;6549;53.128;8.182;2023-09-08T13:19:20;5.50;;;4.27;;
12968;SDS011;6549;53.128;8.182;2023-09-08T13:22:21;5.27;;;3.57;;
12968;SDS011;6549;53.128;8.182;2023-09-08T13:25:21;3.77;;;3.27;;
12968;SDS011;6549;53.128;8.182;2023-09-08T13:28:21;6.23;;;3.60;;
12968;SDS011;6549;53.128;8.182;2023-09-08T13:31:22;5.63;;;3.80;;
12968;SDS011;6549;53.128;8.182;2023-09-08T13:34:22;4.77;;;3.67;;
12968;SDS011;6549;53.128;8.182;2023-09-08T13:37:22;4.40;;;3.37;;
12968;SDS011;6549;53.128;8.182;2023-09-08T13:40:23;6.73;;;3.83;;
12968;SDS011;6549;53.128;8.182;2023-09-08T13:43:24;5.60;;;3.43;;
12968;SDS011;6549;53.128;8.182;2023-09-08T13:46:24;4.77;;;3.30;;
12968;SDS011;6549;53.128;8.182;2023-09-08T13:49:25;3.97;;;3.47;;
12968;SDS011;6549;53.128;8.182;2023-09-08T13:52:26;4.25;;;3.35;;
12968;SDS011;6549;53.128;8.182;2023-09-08T13:55:26;6.80;;;3.83;;
12968;SDS011;6549;53.128;8.182;2023-09-08T13:58:26;4.53;;;4.00;;
12968;SDS011;6549;53.128;8.182;2023-09-08T14:01:27;4.00;;;3.60;;
12968;SDS011;6549;53.128;8.182;2023-09-08T14:04:29;4.95;;;3.65;;
12968;SDS011;6549;53.128;8.182;2023-09-08T14:07:29;5.23;;;3.63;;
12968;SDS011;6549;53.128;8.182;2023-09-08T14:10:29;4.63;;;3.57;;
12968;SDS011;6549;53.128;8.182;2023-09-08T14:13:30;4.33;;;3.40;;
12968;SDS011;6549;53.128;8.182;2023-09-08T14:16:30;5.17;;;3.17;;
12968;SDS011;6549;53.128;8.182;2023-09-08T14:19:30;5.33;;;3.70;;
12968;SDS011;6549;53.128;8.182;2023-09-08T14:22:30;4.37;;;3.70;;
12968;SDS011;6549;53.128;8.182;2023-09-08T14:25:31;3.80;;;3.40;;
12968;SDS011;6549;53.128;8.182;2023-09-08T14:28:31;4.83;;;3.60;;
12968;SDS011;6549;53.128;8.182;2023-09-08T14:31:34;5.97;;;3.78;;
12968;SDS011;6549;53.128;8.182;2023-09-08T14:34:34;4.67;;;3.30;;
12968;SDS011;6549;53.128;8.182;2023-09-08T14:37:34;3.83;;;3.27;;
12968;SDS011;6549;53.128;8.182;2023-09-08T14:40:35;3.70;;;3.30;;
12968;SDS011;6549;53.128;8.182;2023-09-08T14:43:35;3.93;;;3.50;;
12968;SDS011;6549;53.128;8.182;2023-09-08T14:46:36;4.37;;;3.07;;
12968;SDS011;6549;53.128;8.182;2023-09-08T14:49:36;5.03;;;3.20;;
12968;SDS011;6549;53.128;8.182;2023-09-08T14:52:36;4.13;;;3.40;;
12968;SDS011;6549;53.128;8.182;2023-09-08T14:55:36;4.50;;;3.43;;
12968;SDS011;6549;53.128;8.182;2023-09-08T14:58:37;5.80;;;3.70;;
12968;SDS011;6549;53.128;8.182;2023-09-08T15:01:37;5.13;;;3.83;;
12968;SDS011;6549;53.128;8.182;2023-09-08T15:04:40;3.88;;;3.20;;
12968;SDS011;6549;53.128;8.182;2023-09-08T15:07:40;4.70;;;3.50;;
12968;SDS011;6549;53.128;8.182;2023-09-08T15:10:41;4.53;;;3.40;;
12968;SDS011;6549;53.128;8.182;2023-09-08T15:13:41;4.70;;;3.40;;
12968;SDS011;6549;53.128;8.182;2023-09-08T15:16:41;5.07;;;3.23;;
12968;SDS011;6549;53.128;8.182;2023-09-08T15:19:42;4.20;;;3.50;;
12968;SDS011;6549;53.128;8.182;2023-09-08T15:22:42;5.20;;;3.67;;
12968;SDS011;6549;53.128;8.182;2023-09-08T15:25:49;6.13;;;3.60;;
12968;SDS011;6549;53.128;8.182;2023-09-08T15:28:51;4.75;;;3.28;;
12968;SDS011;6549;53.128;8.182;2023-09-08T15:31:51;4.60;;;3.50;;
12968;SDS011;6549;53.128;8.182;2023-09-08T15:34:51;4.33;;;3.50;;
12968;SDS011;6549;53.128;8.182;2023-09-08T15:37:51;3.57;;;3.20;;
12968;SDS011;6549;53.128;8.182;2023-09-08T15:44:07;4.93;;;3.40;;
12968;SDS011;6549;53.128;8.182;2023-09-08T15:47:07;16.90;;;4.50;;
12968;SDS011;6549;53.128;8.182;2023-09-08T15:50:08;4.80;;;3.87;;
12968;SDS011;6549;53.128;8.182;2023-09-08T15:53:09;4.73;;;3.63;;
12968;SDS011;6549;53.128;8.182;2023-09-08T15:56:09;4.00;;;3.43;;
12968;SDS011;6549;53.128;8.182;2023-09-08T15:59:09;6.43;;;3.50;;
12968;SDS011;6549;53.128;8.182;2023-09-08T16:02:10;6.17;;;3.70;;
12968;SDS011;6549;53.128;8.182;2023-09-08T16:05:10;4.63;;;3.30;;
12968;SDS011;6549;53.128;8.182;2023-09-08T16:08:11;4.00;;;3.22;;
12968;SDS011;6549;53.128;8.182;2023-09-08T16:11:12;4.07;;;3.17;;
12968;SDS011;6549;53.128;8.182;2023-09-08T16:14:12;4.77;;;3.47;;
12968;SDS011;6549;53.128;8.182;2023-09-08T16:17:12;5.53;;;3.33;;
12968;SDS011;6549;53.128;8.182;2023-09-08T16:20:13;4.63;;;3.50;;
12968;SDS011;6549;53.128;8.182;2023-09-08T16:23:13;4.43;;;3.40;;
12968;SDS011;6549;53.128;8.182;2023-09-08T16:26:13;3.57;;;3.27;;
12968;SDS011;6549;53.128;8.182;2023-09-08T16:29:13;3.67;;;3.27;;
12968;SDS011;6549;53.128;8.182;2023-09-08T16:32:14;4.27;;;3.53;;
12968;SDS011;6549;53.128;8.182;2023-09-08T16:35:14;4.23;;;3.20;;
12968;SDS011;6549;53.128;8.182;2023-09-08T16:38:14;3.73;;;3.03;;
12968;SDS011;6549;53.128;8.182;2023-09-08T16:41:15;4.37;;;3.03;;
12968;SDS011;6549;53.128;8.182;2023-09-08T16:44:15;3.80;;;2.97;;
12968;SDS011;6549;53.128;8.182;2023-09-08T16:47:15;4.37;;;3.30;;
12968;SDS011;6549;53.128;8.182;2023-09-08T16:50:16;4.50;;;3.40;;
12968;SDS011;6549;53.128;8.182;2023-09-08T16:53:16;4.37;;;3.07;;
12968;SDS011;6549;53.128;8.182;2023-09-08T16:56:16;4.40;;;3.30;;
12968;SDS011;6549;53.128;8.182;2023-09-08T16:59:17;4.17;;;3.53;;
12968;SDS011;6549;53.128;8.182;2023-09-08T17:02:19;4.03;;;3.13;;
12968;SDS011;6549;53.128;8.182;2023-09-08T17:05:20;4.73;;;3.33;;
12968;SDS011;6549;53.128;8.182;2023-09-08T17:08:20;3.80;;;3.13;;
12968;SDS011;6549;53.128;8.182;2023-09-08T17:11:20;4.47;;;3.57;;
12968;SDS011;6549;53.128;8.182;2023-09-08T17:14:21;3.73;;;3.23;;
12968;SDS011;6549;53.128;8.182;2023-09-08T17:17:21;4.03;;;3.40;;
12968;SDS011;6549;53.128;8.182;2023-09-08T17:20:21;4.47;;;3.60;;
12968;SDS011;6549;53.128;8.182;2023-09-08T17:23:22;4.10;;;3.40;;
12968;SDS011;6549;53.128;8.182;2023-09-08T17:29:24;4.85;;;3.78;;
12968;SDS011;6549;53.128;8.182;2023-09-08T17:32:24;4.97;;;4.07;;
12968;SDS011;6549;53.128;8.182;2023-09-08T17:35:24;5.20;;;4.10;;
12968;SDS011;6549;53.128;8.182;2023-09-08T17:38:25;4.83;;;4.10;;
12968;SDS011;6549;53.128;8.182;2023-09-08T17:41:25;4.67;;;3.77;;
12968;SDS011;6549;53.128;8.182;2023-09-08T17:44:26;4.20;;;3.80;;
12968;SDS011;6549;53.128;8.182;2023-09-08T17:47:26;5.37;;;4.47;;
12968;SDS011;6549;53.128;8.182;2023-09-08T17:50:26;5.85;;;4.55;;
12968;SDS011;6549;53.128;8.182;2023-09-08T17:53:26;6.68;;;4.80;;
12968;SDS011;6549;53.128;8.182;2023-09-08T17:56:27;6.32;;;4.90;;
12968;SDS011;6549;53.128;8.182;2023-09-08T17:59:27;7.72;;;5.07;;
12968;SDS011;6549;53.128;8.182;2023-09-08T18:02:27;6.05;;;4.95;;
12968;SDS011;6549;53.128;8.182;2023-09-08T18:05:28;7.00;;;5.57;;
12968;SDS011;6549;53.128;8.182;2023-09-08T18:08:28;6.82;;;5.35;;
12968;SDS011;6549;53.128;8.182;2023-09-08T18:11:28;7.97;;;5.50;;
12968;SDS011;6549;53.128;8.182;2023-09-08T18:14:29;6.40;;;5.70;;
12968;SDS011;6549;53.128;8.182;2023-09-08T18:17:29;6.03;;;5.20;;
12968;SDS011;6549;53.128;8.182;2023-09-08T18:20:32;6.32;;;5.57;;
12968;SDS011;6549;53.128;8.182;2023-09-08T18:23:33;7.15;;;6.25;;
12968;SDS011;6549;53.128;8.182;2023-09-08T18:26:34;10.20;;;6.85;;
12968;SDS011;6549;53.128;8.182;2023-09-08T18:29:34;8.55;;;6.63;;
12968;SDS011;6549;53.128;8.182;2023-09-08T18:32:35;9.77;;;7.05;;
12968;SDS011;6549;53.128;8.182;2023-09-08T18:35:35;7.57;;;6.85;;
12968;SDS011;6549;53.128;8.182;2023-09-08T18:38:36;9.00;;;7.43;;
12968;SDS011;6549;53.128;8.182;2023-09-08T18:41:36;9.17;;;7.50;;
12968;SDS011;6549;53.128;8.182;2023-09-08T18:44:37;10.20;;;8.00;;